Аэропорт: Ужгород. Ужгород

ICAO: UKLU

METAR:
2020-08-12 06:00:00
UKLU 120600Z 00000MPS 9999 NSC 20/15 Q1018 R10/090070 NOSIG
METAR:
2020-08-12 05:03:00
TAF UKLU 120503Z 1206/1215 02003MPS 9999 NSC TX30/1214Z TN21/1206Z